Time;durP1;ratioP1;P1;durP2;ratioP2;P2;SDS_P1;SDS_P2;PMS_P1;PMS_P2;Temp;Humidity;BMP_temperature;BMP_pressure;BME280_temperature;BME280_humidity;BME280_pressure;Samples;Min_cycle;Max_cycle;Signal;HPM_P1;HPM_P2
2022/04/11 00:02:01;;;;;;;110.43;100.05;;;6.30;85.50;;;;;;4998654;28;20136;-84
2022/04/11 00:04:30;;;;;;;108.65;98.43;;;6.20;85.80;;;;;;5015076;28;20056;-84
2022/04/11 00:06:57;;;;;;;110.25;99.75;;;6.20;86.20;;;;;;5001245;28;20049;-84
2022/04/11 00:09:24;;;;;;;;;;;6.10;86.80;;;;;;5002421;28;20060;-84
2022/04/11 00:11:51;;;;;;;108.43;97.93;;;6.10;86.50;;;;;;5018509;28;19929;-84
2022/04/11 00:14:18;;;;;;;109.63;99.32;;;6.10;86.50;;;;;;5018343;28;20064;-84
2022/04/11 00:16:45;;;;;;;110.00;99.57;;;6.00;86.80;;;;;;5001736;28;20135;-84
2022/04/11 00:19:12;;;;;;;;;;;6.00;87.50;;;;;;5001952;28;20053;-84
2022/04/11 00:21:40;;;;;;;109.40;98.70;;;6.00;87.10;;;;;;5018380;28;20449;-84
2022/04/11 00:24:08;;;;;;;109.50;99.20;;;5.90;87.70;;;;;;5001530;28;20157;-84
2022/04/11 00:26:35;;;;;;;108.85;98.55;;;6.00;88.20;;;;;;5018185;28;20613;-84
2022/04/11 00:29:02;;;;;;;;;;;5.90;88.70;;;;;;5018103;28;20459;-84
2022/04/11 00:31:29;;;;;;;110.90;100.22;;;6.00;88.20;;;;;;5001802;28;19932;-84
2022/04/11 00:33:56;;;;;;;109.60;99.22;;;5.90;88.10;;;;;;5001665;28;20058;-84
2022/04/11 00:36:23;;;;;;;108.57;98.32;;;6.00;88.50;;;;;;5001602;28;20066;-84
2022/04/11 00:38:52;;;;;;;111.22;100.63;;;6.00;88.80;;;;;;5017507;28;20058;-84
2022/04/11 00:41:19;;;;;;;111.10;100.70;;;5.90;89.00;;;;;;5001519;28;20050;-84
2022/04/11 00:43:47;;;;;;;109.85;99.55;;;6.00;89.00;;;;;;5000944;28;20590;-84
2022/04/11 00:46:14;;;;;;;109.57;99.20;;;6.00;89.00;;;;;;5018057;28;20054;-84
2022/04/11 00:48:41;;;;;;;110.28;99.93;;;6.00;89.00;;;;;;5000781;28;20046;-84
2022/04/11 00:51:11;;;;;;;110.18;99.68;;;5.90;89.00;;;;;;5001082;28;20050;-84
2022/04/11 00:53:40;;;;;;;110.00;99.70;;;5.90;89.00;;;;;;5001158;28;20100;-84
2022/04/11 00:56:12;;;;;;;110.82;100.53;;;5.90;89.10;;;;;;5001050;28;20061;-84
2022/04/11 00:58:40;;;;;;;112.57;102.07;;;5.80;88.70;;;;;;5000522;28;20046;-84
2022/04/11 01:01:08;;;;;;;111.75;101.25;;;5.70;88.70;;;;;;5001290;28;20136;-84
2022/04/11 01:03:36;;;;;;;110.70;100.20;;;5.70;89.10;;;;;;5001104;28;20128;-84
2022/04/11 01:06:06;;;;;;;110.72;100.32;;;5.70;89.40;;;;;;5001142;28;20088;-84
2022/04/11 01:08:34;;;;;;;110.53;100.03;;;5.70;89.50;;;;;;5000644;28;20042;-84
2022/04/11 01:11:03;;;;;;;110.93;100.32;;;5.70;89.50;;;;;;5001076;28;20558;-84
2022/04/11 01:13:31;;;;;;;110.75;100.05;;;5.60;89.40;;;;;;5001211;28;20054;-84
2022/04/11 01:16:00;;;;;;;112.32;101.63;;;5.60;89.30;;;;;;5017401;28;20049;-84
2022/04/11 01:18:27;;;;;;;112.47;101.80;;;5.50;89.50;;;;;;4999520;28;20046;-84
2022/04/11 01:20:55;;;;;;;112.55;101.75;;;5.50;89.80;;;;;;5000747;28;20141;-84
2022/04/11 01:23:23;;;;;;;112.90;102.10;;;5.50;90.10;;;;;;5000359;28;20054;-84
2022/04/11 01:25:51;;;;;;;114.38;103.43;;;5.40;90.20;;;;;;5016882;28;20056;-85
2022/04/11 01:28:20;;;;;;;114.32;103.32;;;5.40;90.20;;;;;;5016375;28;20054;-84
2022/04/11 01:30:47;;;;;;;113.22;102.32;;;5.30;90.30;;;;;;5000691;28;20054;-84
2022/04/11 01:33:16;;;;;;;114.22;103.32;;;5.30;90.40;;;;;;5000839;28;20066;-84
2022/04/11 01:35:44;;;;;;;115.15;104.15;;;5.30;90.40;;;;;;5000278;28;20046;-84
2022/04/11 01:38:12;;;;;;;115.13;104.20;;;5.30;90.40;;;;;;5000008;28;20046;-84
2022/04/11 01:40:48;;;;;;;114.25;103.45;;;5.20;90.70;;;;;;5000349;28;20105;-84
2022/04/11 01:43:16;;;;;;;114.05;103.15;;;5.20;90.60;;;;;;5000426;28;20128;-84
2022/04/11 01:45:43;;;;;;;113.30;102.35;;;5.20;90.60;;;;;;5016475;28;20112;-84
2022/04/11 01:48:10;;;;;;;112.80;101.95;;;5.20;90.70;;;;;;5016461;28;20062;-84
2022/04/11 01:50:37;;;;;;;114.55;103.65;;;5.20;90.70;;;;;;5000106;28;20054;-84
2022/04/11 01:53:06;;;;;;;112.93;102.13;;;5.20;90.80;;;;;;5000677;28;20155;-84
2022/04/11 01:55:32;;;;;;;113.07;102.18;;;5.20;90.80;;;;;;5000304;28;20093;-84
2022/04/11 01:58:01;;;;;;;111.55;100.65;;;5.10;90.70;;;;;;4999912;28;20050;-84
2022/04/11 02:00:28;;;;;;;112.95;102.05;;;5.10;90.80;;;;;;4999991;28;20500;-84
2022/04/11 02:02:55;;;;;;;111.03;100.32;;;5.20;90.80;;;;;;5000070;28;20104;-84
2022/04/11 02:05:22;;;;;;;;;;;5.20;90.90;;;;;;5000539;28;20141;-84
2022/04/11 02:07:50;;;;;;;110.60;99.72;;;5.10;90.50;;;;;;4999819;28;20309;-84
2022/04/11 02:10:16;;;;;;;111.90;100.90;;;5.10;90.80;;;;;;5000104;28;20080;-84
2022/04/11 02:12:44;;;;;;;110.25;99.40;;;5.10;90.90;;;;;;5000298;28;20364;-84
2022/04/11 02:15:12;;;;;;;;;;;5.00;91.00;;;;;;5000235;28;20054;-84
2022/04/11 02:17:39;;;;;;;110.20;99.40;;;5.10;90.80;;;;;;4999588;28;20012;-84
2022/04/11 02:20:08;;;;;;;109.13;98.28;;;5.00;90.90;;;;;;4999754;28;20120;-84
2022/04/11 02:22:46;;;;;;;111.82;101.03;;;5.00;90.90;;;;;;5000072;28;20050;-83
2022/04/11 02:25:14;;;;;;;110.82;100.03;;;5.00;91.10;;;;;;5000008;28;20058;-84
2022/04/11 02:27:40;;;;;;;;;;;4.90;91.10;;;;;;5000141;28;20141;-84
2022/04/11 02:30:07;;;;;;;;;;;4.90;90.80;;;;;;5000203;28;19979;-84
2022/04/11 02:32:36;;;;;;;111.97;100.88;;;4.80;90.80;;;;;;4999711;28;19925;-84
2022/04/11 02:35:03;;;;;;;111.90;101.00;;;4.80;91.00;;;;;;4999636;28;20140;-84
2022/04/11 02:37:31;;;;;;;110.88;99.97;;;4.80;91.20;;;;;;4999275;28;20124;-84
2022/04/11 02:39:58;;;;;;;112.05;101.15;;;4.80;91.40;;;;;;4999378;28;20057;-84
2022/04/11 02:42:28;;;;;;;111.70;100.90;;;4.70;91.60;;;;;;4999787;28;20058;-84
2022/04/11 02:45:01;;;;;;;111.18;100.47;;;4.70;91.60;;;;;;4999955;28;20136;-84
2022/04/11 02:47:28;;;;;;;111.30;100.60;;;4.70;91.60;;;;;;4999372;28;20420;-84
2022/04/11 02:49:57;;;;;;;111.05;100.35;;;4.70;91.60;;;;;;4999293;28;20153;-84
2022/04/11 02:52:44;;;;;;;112.72;101.80;;;4.70;91.70;;;;;;5015336;28;20069;-84
2022/04/11 02:55:11;;;;;;;112.90;102.10;;;4.60;91.70;;;;;;4999492;28;20137;-84
2022/04/11 02:57:38;;;;;;;112.40;101.60;;;4.60;91.70;;;;;;4998922;28;20049;-84
2022/04/11 03:00:09;;;;;;;111.55;100.85;;;4.60;91.70;;;;;;4999130;28;20062;-84
2022/04/11 03:02:39;;;;;;;110.75;100.07;;;4.60;91.80;;;;;;4999940;28;20161;-85
2022/04/11 03:05:09;;;;;;;111.97;101.07;;;4.60;91.90;;;;;;4999209;28;20535;-84
2022/04/11 03:07:39;;;;;;;110.50;99.70;;;4.50;91.90;;;;;;4998890;28;20403;-84
2022/04/11 03:10:07;;;;;;;;;;;4.50;91.80;;;;;;5016062;28;20456;-84
2022/04/11 03:12:35;;;;;;;110.35;99.43;;;4.50;91.60;;;;;;4999268;28;19925;-84
2022/04/11 03:15:07;;;;;;;111.85;100.95;;;4.40;91.80;;;;;;4999360;28;20139;-84
2022/04/11 03:17:35;;;;;;;111.55;100.55;;;4.50;91.90;;;;;;4998709;28;20056;-84
2022/04/11 03:20:02;;;;;;;112.63;101.82;;;4.50;91.90;;;;;;4998451;28;20119;-84
2022/04/11 03:22:31;;;;;;;109.35;98.65;;;4.50;92.00;;;;;;4999082;28;20054;-84
2022/04/11 03:25:04;;;;;;;110.10;99.20;;;4.50;92.10;;;;;;4999206;28;20125;-84
2022/04/11 03:27:31;;;;;;;109.20;98.45;;;4.50;92.10;;;;;;4998751;28;20125;-84
2022/04/11 03:29:59;;;;;;;110.53;99.80;;;4.50;92.00;;;;;;4999104;28;20518;-84
2022/04/11 03:32:26;;;;;;;109.70;98.90;;;4.40;91.90;;;;;;4999276;28;20049;-84
2022/04/11 03:34:54;;;;;;;110.85;99.85;;;4.40;91.90;;;;;;4998882;28;20088;-84
2022/04/11 03:37:22;;;;;;;;;;;4.40;92.00;;;;;;4998702;28;20052;-84
2022/04/11 03:40:01;;;;;;;110.40;99.50;;;4.40;91.90;;;;;;4999939;28;19925;-84
2022/04/11 03:42:28;;;;;;;110.47;99.68;;;4.40;92.00;;;;;;5005278;28;20064;-84
2022/04/11 03:44:55;;;;;;;111.90;101.00;;;4.40;92.00;;;;;;5005338;28;20531;-84
2022/04/11 03:47:23;;;;;;;110.40;99.60;;;4.40;92.00;;;;;;5004860;28;20049;-84
2022/04/11 03:49:50;;;;;;;;;;;4.40;92.10;;;;;;5021741;28;20512;-84
2022/04/11 03:52:25;;;;;;;110.20;99.25;;;4.30;92.00;;;;;;5005610;28;19926;-84
2022/04/11 03:54:57;;;;;;;110.28;99.47;;;4.30;92.10;;;;;;5005544;28;20046;-84
2022/04/11 03:57:26;;;;;;;110.57;99.85;;;4.30;92.20;;;;;;5004860;28;20042;-84
2022/04/11 03:59:58;;;;;;;110.13;99.32;;;4.30;92.30;;;;;;5005457;28;20141;-84
2022/04/11 04:02:25;;;;;;;109.45;98.85;;;4.40;92.40;;;;;;5005401;28;20089;-84
2022/04/11 04:04:52;;;;;;;110.78;99.90;;;4.40;92.50;;;;;;5005445;28;20145;-85
2022/04/11 04:07:19;;;;;;;;;;;4.40;92.60;;;;;;5005065;28;20054;-84
2022/04/11 04:09:47;;;;;;;109.88;98.97;;;4.40;92.30;;;;;;5005080;28;19929;-84
2022/04/11 04:12:14;;;;;;;108.97;98.28;;;4.40;92.40;;;;;;5004710;28;20104;-84
2022/04/11 04:14:46;;;;;;;111.07;100.28;;;4.40;92.50;;;;;;5004997;28;20056;-84
2022/04/11 04:17:14;;;;;;;111.20;100.40;;;4.40;92.60;;;;;;5004502;28;20046;-84
2022/04/11 04:19:48;;;;;;;110.72;99.90;;;4.40;92.60;;;;;;5004785;28;20120;-84
2022/04/11 04:22:20;;;;;;;110.38;99.72;;;4.40;92.70;;;;;;5021222;28;20504;-84
2022/04/11 04:24:48;;;;;;;110.40;99.40;;;4.40;92.70;;;;;;5021451;28;20092;-85
2022/04/11 04:27:15;;;;;;;112.20;101.32;;;4.40;92.70;;;;;;5004492;28;20054;-84
2022/04/11 04:29:42;;;;;;;110.47;99.88;;;4.40;92.80;;;;;;5004750;28;20356;-84
2022/04/11 04:32:11;;;;;;;110.75;99.95;;;4.40;92.90;;;;;;5004437;28;20057;-85
2022/04/11 04:34:39;;;;;;;110.30;99.63;;;4.40;93.00;;;;;;5004739;28;20523;-84
2022/04/11 04:37:08;;;;;;;113.50;102.55;;;4.40;93.00;;;;;;5004299;28;20084;-84
2022/04/11 04:39:36;;;;;;;110.35;99.50;;;4.40;93.10;;;;;;5036854;28;20056;-85
2022/04/11 04:42:06;;;;;;;110.53;99.93;;;4.40;93.10;;;;;;5004153;28;20128;-84
2022/04/11 04:44:33;;;;;;;110.07;99.28;;;4.40;93.10;;;;;;5003540;28;20524;-84
2022/04/11 04:47:02;;;;;;;111.90;101.00;;;4.40;93.20;;;;;;5020370;28;20050;-85
2022/04/11 04:49:37;;;;;;;111.10;100.32;;;4.40;93.10;;;;;;5004369;28;20193;-84
2022/04/11 04:52:06;;;;;;;111.05;100.35;;;4.40;93.10;;;;;;5001456;28;20559;-85
2022/04/11 04:54:38;;;;;;;110.05;99.45;;;4.40;93.10;;;;;;5001143;28;20511;-84
2022/04/11 04:57:06;;;;;;;111.85;101.05;;;4.40;93.20;;;;;;5000797;28;20108;-84
2022/04/11 04:59:34;;;;;;;110.45;99.65;;;4.40;93.20;;;;;;5000811;28;20112;-85
2022/04/11 05:02:07;;;;;;;110.18;99.40;;;4.50;93.30;;;;;;4999915;28;20053;-84
2022/04/11 05:04:37;;;;;;;108.65;98.10;;;4.40;93.30;;;;;;5000253;28;20053;-85
2022/04/11 05:07:05;;;;;;;111.00;100.32;;;4.40;93.40;;;;;;5000066;28;20053;-85
2022/04/11 05:09:34;;;;;;;108.93;98.28;;;4.40;93.40;;;;;;5000361;28;20053;-84
2022/04/11 05:12:02;;;;;;;109.38;98.82;;;4.40;93.40;;;;;;5000408;28;20061;-85
2022/04/11 05:14:29;;;;;;;110.22;99.53;;;4.40;93.40;;;;;;4999188;28;20046;-85
2022/04/11 05:17:04;;;;;;;111.05;100.25;;;4.40;93.50;;;;;;4999966;28;20128;-86
2022/04/11 05:19:33;;;;;;;109.07;98.38;;;4.50;93.60;;;;;;4998230;28;20046;-86
2022/04/11 05:22:01;;;;;;;109.82;99.15;;;4.50;93.60;;;;;;4999690;28;20050;-85
2022/04/11 05:24:28;;;;;;;109.32;98.72;;;4.50;93.60;;;;;;4999302;28;20041;-84
2022/04/11 05:26:55;;;;;;;;;;;4.50;93.70;;;;;;4999162;28;20073;-82
2022/04/11 05:29:22;;;;;;;109.20;98.35;;;4.50;93.50;;;;;;4999982;28;20020;-84
2022/04/11 05:31:51;;;;;;;110.60;99.80;;;4.50;93.70;;;;;;4997859;28;20054;-84
2022/04/11 05:34:19;;;;;;;109.95;99.18;;;4.50;93.80;;;;;;5000457;28;20046;-84
2022/04/11 05:36:46;;;;;;;;;;;4.50;93.80;;;;;;5001013;28;20042;-83
2022/04/11 05:39:15;;;;;;;108.63;97.85;;;4.50;93.70;;;;;;5000356;28;19925;-83
2022/04/11 05:41:42;;;;;;;109.93;99.13;;;4.50;93.80;;;;;;4999915;28;20149;-83
2022/04/11 05:44:09;;;;;;;108.95;98.35;;;4.50;93.90;;;;;;4999265;28;20089;-84
2022/04/11 05:46:41;;;;;;;109.18;98.28;;;4.50;93.90;;;;;;4997604;28;20046;-84
2022/04/11 05:49:14;;;;;;;110.25;99.60;;;4.50;94.00;;;;;;4995997;28;20081;-85
2022/04/11 05:51:41;;;;;;;109.75;98.57;;;4.50;94.00;;;;;;4999812;28;20077;-85
2022/04/11 05:54:08;;;;;;;112.25;101.35;;;4.60;94.00;;;;;;4998674;28;20472;-84
2022/04/11 05:56:37;;;;;;;109.15;98.57;;;4.60;94.10;;;;;;4998243;28;20102;-84
2022/04/11 05:59:09;;;;;;;109.75;98.82;;;4.60;94.10;;;;;;4999526;28;20057;-84
2022/04/11 06:01:36;;;;;;;109.57;98.82;;;4.70;94.10;;;;;;4999709;28;20062;-84
2022/04/11 06:04:04;;;;;;;108.65;98.15;;;4.70;94.10;;;;;;4999709;28;20136;-84
2022/04/11 06:06:31;;;;;;;108.90;98.00;;;4.70;94.10;;;;;;4999379;28;20042;-85
2022/04/11 06:08:59;;;;;;;109.38;98.72;;;4.70;94.10;;;;;;4999360;28;20050;-84
2022/04/11 06:11:28;;;;;;;110.07;99.38;;;4.70;94.20;;;;;;4998571;28;20100;-84
2022/04/11 06:13:57;;;;;;;110.13;99.43;;;4.70;94.20;;;;;;4997476;28;20492;-85
2022/04/11 06:16:24;;;;;;;109.93;99.32;;;4.70;94.20;;;;;;4998428;28;20046;-85
2022/04/11 06:18:51;;;;;;;109.18;98.68;;;4.80;94.20;;;;;;5012784;28;20136;-83
2022/04/11 06:21:19;;;;;;;;;;;4.80;94.20;;;;;;4998731;28;20133;-84
2022/04/11 06:23:46;;;;;;;109.15;98.25;;;4.80;94.10;;;;;;5015789;28;19956;-85
2022/04/11 06:26:13;;;;;;;109.72;99.03;;;4.80;94.30;;;;;;4999311;28;20053;-84
2022/04/11 06:28:43;;;;;;;108.80;98.20;;;4.80;94.30;;;;;;4996316;28;20058;-84
2022/04/11 06:31:14;;;;;;;113.32;102.40;;;4.80;94.40;;;;;;4998972;28;20069;-85
2022/04/11 06:33:42;;;;;;;110.07;99.38;;;4.90;94.50;;;;;;4997524;28;20085;-85
2022/04/11 06:36:09;;;;;;;110.13;99.45;;;4.80;94.50;;;;;;5015085;28;20052;-86
2022/04/11 06:38:36;;;;;;;112.05;100.97;;;4.90;94.50;;;;;;4998971;28;20582;-86
2022/04/11 06:41:05;;;;;;;110.40;99.22;;;4.90;94.60;;;;;;4996927;28;20053;-85
2022/04/11 06:43:32;;;;;;;108.90;98.18;;;4.90;94.60;;;;;;4999579;28;20060;-85
2022/04/11 06:46:10;;;;;;;111.53;100.45;;;4.90;94.60;;;;;;4997877;28;20047;-84
2022/04/11 06:48:38;;;;;;;111.75;100.65;;;5.00;94.70;;;;;;4997932;28;20144;-85
2022/04/11 06:51:05;;;;;;;110.18;99.57;;;5.00;94.80;;;;;;4997816;28;20057;-84
2022/04/11 06:53:32;;;;;;;109.45;98.85;;;5.00;94.80;;;;;;5015283;28;20398;-84
2022/04/11 06:55:59;;;;;;;111.32;100.15;;;5.00;94.80;;;;;;5014638;28;20072;-83
2022/04/11 06:58:26;;;;;;;111.18;100.38;;;5.10;94.90;;;;;;4998644;28;20688;-83
2022/04/11 07:00:53;;;;;;;111.78;100.88;;;5.10;94.90;;;;;;4998890;28;20563;-85
2022/04/11 07:03:20;;;;;;;112.75;101.65;;;5.10;94.80;;;;;;4998623;28;20128;-86
2022/04/11 07:05:48;;;;;;;112.75;101.45;;;5.20;94.80;;;;;;4999292;28;20054;-86
2022/04/11 07:08:15;;;;;;;113.20;102.20;;;5.20;94.90;;;;;;4998967;28;20049;-86
2022/04/11 07:10:44;;;;;;;112.50;101.65;;;5.30;94.90;;;;;;5015543;28;20088;-87
2022/04/11 07:13:11;;;;;;;110.72;99.75;;;5.30;94.90;;;;;;4999109;28;20049;-86
2022/04/11 07:15:39;;;;;;;;;;;5.30;95.00;;;;;;4998991;28;20132;-87
2022/04/11 07:18:06;;;;;;;111.85;100.70;;;5.30;94.80;;;;;;4998018;28;20395;-85
2022/04/11 07:20:33;;;;;;;112.35;101.18;;;5.40;94.90;;;;;;5014117;28;20129;-85
2022/04/11 07:23:01;;;;;;;;;;;5.40;95.00;;;;;;4998084;28;20062;-85
2022/04/11 07:25:29;;;;;;;112.80;101.70;;;5.40;94.70;;;;;;5030949;28;20331;-84
2022/04/11 07:27:56;;;;;;;113.95;102.68;;;5.50;94.90;;;;;;5014049;28;20094;-86
2022/04/11 07:30:23;;;;;;;113.07;101.75;;;5.60;95.00;;;;;;5014144;28;20520;-84
2022/04/11 07:32:50;;;;;;;112.97;101.97;;;5.60;95.10;;;;;;5014237;28;20137;-83
2022/04/11 07:35:17;;;;;;;113.10;102.20;;;5.60;95.10;;;;;;5014534;28;20208;-84
2022/04/11 07:37:44;;;;;;;114.07;102.63;;;5.70;95.10;;;;;;4994930;28;20081;-85
2022/04/11 07:40:13;;;;;;;114.38;102.75;;;5.70;95.10;;;;;;5013101;28;20045;-85
2022/04/11 07:42:40;;;;;;;113.88;102.80;;;5.80;95.30;;;;;;5013803;28;20082;-86
2022/04/11 07:45:08;;;;;;;114.10;102.68;;;5.80;95.20;;;;;;4998571;28;20153;-85
2022/04/11 07:47:35;;;;;;;112.97;101.82;;;5.80;95.20;;;;;;4997563;28;20192;-86
2022/04/11 07:50:02;;;;;;;113.68;102.65;;;5.90;95.30;;;;;;4997564;28;20105;-84
2022/04/11 07:52:29;;;;;;;116.90;105.35;;;5.90;95.30;;;;;;5014232;28;20062;-87
2022/04/11 07:54:56;;;;;;;;;;;6.00;95.30;;;;;;4992660;28;20058;-86
2022/04/11 07:57:25;;;;;;;;;;;6.00;95.20;;;;;;5031339;28;19929;-85
2022/04/11 07:59:52;;;;;;;114.25;103.05;;;6.00;95.10;;;;;;5012176;28;19925;-85
2022/04/11 08:02:25;;;;;;;113.53;102.63;;;6.10;95.30;;;;;;5014593;28;20055;-85
2022/04/11 08:04:52;;;;;;;114.50;103.38;;;6.10;95.30;;;;;;4998273;28;20101;-85
2022/04/11 08:07:19;;;;;;;114.65;103.65;;;6.20;95.40;;;;;;5014708;28;20054;-85
2022/04/11 08:09:46;;;;;;;;;;;6.20;95.50;;;;;;4999115;28;20543;-86
2022/04/11 08:12:13;;;;;;;113.78;102.47;;;6.30;95.50;;;;;;5015222;28;20020;-85
2022/04/11 08:14:41;;;;;;;113.80;102.72;;;6.30;95.50;;;;;;5014805;28;20483;-86
2022/04/11 08:17:08;;;;;;;114.75;103.53;;;6.40;95.60;;;;;;4998207;28;20468;-87
2022/04/11 08:19:35;;;;;;;;;;;6.40;95.50;;;;;;4999734;28;20053;-85
2022/04/11 08:22:02;;;;;;;115.05;103.75;;;6.50;95.50;;;;;;5015481;28;19987;-85
2022/04/11 08:24:29;;;;;;;114.10;103.03;;;6.50;95.50;;;;;;5014581;28;20588;-85
2022/04/11 08:26:58;;;;;;;;;;;6.60;95.50;;;;;;4999566;28;20057;-86
2022/04/11 08:29:25;;;;;;;115.43;104.18;;;6.70;95.40;;;;;;5001756;28;19980;-87
2022/04/11 08:31:53;;;;;;;115.43;104.07;;;6.70;95.50;;;;;;4999072;28;20050;-84
2022/04/11 08:34:21;;;;;;;115.25;103.80;;;6.80;95.60;;;;;;5001160;28;20053;-86
2022/04/11 08:36:48;;;;;;;114.20;103.03;;;6.90;95.70;;;;;;5000991;28;20551;-85
2022/04/11 08:39:15;;;;;;;117.70;106.40;;;6.90;95.60;;;;;;4995171;28;20054;-85
2022/04/11 08:41:43;;;;;;;112.68;101.78;;;7.00;95.60;;;;;;5012472;28;20576;-84
2022/04/11 08:44:10;;;;;;;116.30;105.07;;;7.00;95.60;;;;;;4997668;28;20053;-85
2022/04/11 08:46:37;;;;;;;114.22;103.22;;;7.10;95.70;;;;;;5016052;28;20054;-85
2022/04/11 08:49:07;;;;;;;123.13;111.85;;;7.20;95.70;;;;;;5013950;28;20054;-86
2022/04/11 08:51:37;;;;;;;113.60;102.32;;;7.30;95.70;;;;;;4995604;28;20534;-85
2022/04/11 08:54:05;;;;;;;112.70;101.63;;;7.40;95.60;;;;;;5013229;28;20494;-85
2022/04/11 08:56:34;;;;;;;113.85;103.05;;;7.50;95.60;;;;;;5000727;28;20144;-85
2022/04/11 08:59:02;;;;;;;114.85;103.93;;;7.60;95.60;;;;;;5017018;28;20084;-86
2022/04/11 09:01:29;;;;;;;111.57;100.95;;;7.60;95.60;;;;;;5001361;28;20157;-86
2022/04/11 09:03:56;;;;;;;;;;;7.70;95.50;;;;;;5017816;28;20054;-86
2022/04/11 09:06:26;;;;;;;113.60;102.47;;;7.80;95.10;;;;;;5017260;28;19980;-86
2022/04/11 09:08:54;;;;;;;110.70;100.10;;;7.90;95.10;;;;;;5000910;28;20089;-86
2022/04/11 09:11:33;;;;;;;113.00;102.43;;;8.00;95.10;;;;;;5001183;28;20512;-86
2022/04/11 09:14:02;;;;;;;113.50;102.18;;;8.10;95.00;;;;;;5017657;28;20105;-86
2022/04/11 09:16:29;;;;;;;111.50;101.05;;;8.20;95.00;;;;;;5017347;28;20085;-87
2022/04/11 09:18:57;;;;;;;110.88;100.30;;;8.30;94.80;;;;;;5017072;28;20062;-85
2022/04/11 09:21:26;;;;;;;111.82;101.22;;;8.30;94.60;;;;;;5017450;28;20104;-85
2022/04/11 09:24:13;;;;;;;110.50;100.03;;;8.50;94.20;;;;;;5000235;28;20069;-85
2022/04/11 09:26:40;;;;;;;113.03;102.32;;;8.50;93.90;;;;;;4999165;28;20513;-85
2022/04/11 09:29:08;;;;;;;109.53;99.03;;;8.60;93.90;;;;;;5016481;28;20515;-86
2022/04/11 09:31:35;;;;;;;108.68;98.18;;;8.70;93.70;;;;;;5016674;28;20058;-84
2022/04/11 09:34:14;;;;;;;108.82;98.53;;;8.90;93.30;;;;;;5000485;28;20046;-86
2022/04/11 09:36:48;;;;;;;108.88;98.32;;;8.90;92.90;;;;;;5017258;28;20057;-85
2022/04/11 09:39:16;;;;;;;111.32;100.93;;;9.00;92.40;;;;;;5015142;28;20073;-86
2022/04/11 09:41:43;;;;;;;109.43;99.22;;;9.10;92.30;;;;;;4997152;28;20050;-86
2022/04/11 09:44:21;;;;;;;109.18;98.88;;;9.20;91.60;;;;;;4980950;28;20078;-86
2022/04/11 09:46:48;;;;;;;110.40;99.80;;;9.40;90.90;;;;;;5029948;28;20050;-87
2022/04/11 09:49:16;;;;;;;110.85;100.32;;;9.40;90.60;;;;;;5012175;28;20137;-86
2022/04/11 09:52:06;;;;;;;111.22;100.68;;;9.50;90.50;;;;;;5012614;28;20081;-87
2022/04/11 09:54:35;;;;;;;110.72;100.32;;;9.60;90.20;;;;;;5013384;28;20054;-87
2022/04/11 09:57:04;;;;;;;111.72;101.13;;;9.80;90.40;;;;;;4995320;28;20054;-84
2022/04/11 09:59:32;;;;;;;111.43;100.55;;;9.80;90.60;;;;;;4980391;28;20138;-85
2022/04/11 10:02:00;;;;;;;112.38;101.40;;;9.90;90.10;;;;;;4998846;28;20979;-83
2022/04/11 10:04:28;;;;;;;110.22;99.88;;;10.00;90.30;;;;;;5014081;28;20137;-83
2022/04/11 10:06:56;;;;;;;112.25;101.75;;;10.10;90.00;;;;;;4999298;28;20060;-83
2022/04/11 10:09:24;;;;;;;113.40;102.63;;;10.20;89.30;;;;;;5015120;28;20054;-83
2022/04/11 10:11:53;;;;;;;111.97;101.57;;;10.20;89.60;;;;;;4998684;28;20046;-81
2022/04/11 10:14:26;;;;;;;111.30;100.80;;;10.40;89.10;;;;;;5015648;28;20503;-81
2022/04/11 10:16:56;;;;;;;114.20;103.60;;;10.40;88.70;;;;;;5032183;28;20054;-83
2022/04/11 10:19:25;;;;;;;111.20;100.82;;;10.50;88.80;;;;;;4999157;28;20054;-84
2022/04/11 10:21:54;;;;;;;112.10;101.75;;;10.60;88.80;;;;;;4999249;28;20057;-83
2022/04/11 10:24:33;;;;;;;111.13;100.78;;;10.70;88.90;;;;;;4997999;28;20049;-82
2022/04/11 10:27:16;;;;;;;114.45;103.80;;;10.80;87.50;;;;;;5014847;28;20124;-83
2022/04/11 10:29:43;;;;;;;114.53;104.03;;;10.90;86.30;;;;;;4997068;28;20147;-83
2022/04/11 10:32:12;;;;;;;113.50;102.80;;;11.00;86.20;;;;;;5014411;28;20058;-83
2022/04/11 10:34:51;;;;;;;113.45;102.68;;;11.10;85.40;;;;;;4998433;28;20108;-83
2022/04/11 10:37:20;;;;;;;115.13;104.32;;;11.20;84.20;;;;;;5013015;28;20045;-83
2022/04/11 10:39:49;;;;;;;114.53;103.95;;;11.30;84.20;;;;;;4998781;28;20050;-83
2022/04/11 10:42:25;;;;;;;115.07;104.55;;;11.40;83.30;;;;;;5014569;28;20060;-84
2022/04/11 10:44:56;;;;;;;119.93;108.82;;;11.40;82.60;;;;;;5014731;28;20119;-81
2022/04/11 10:47:34;;;;;;;116.32;105.55;;;11.50;82.50;;;;;;4997513;28;20174;-87
2022/04/11 10:50:27;;;;;;;116.47;105.47;;;11.60;81.00;;;;;;5012779;28;20054;-83
2022/04/11 10:52:57;;;;;;;116.57;105.80;;;11.70;80.40;;;;;;4996348;28;20050;-84
2022/04/11 10:55:25;;;;;;;116.07;105.45;;;11.80;79.30;;;;;;4998283;28;20077;-84
2022/04/11 10:57:55;;;;;;;115.53;104.93;;;11.90;78.10;;;;;;5012170;28;20145;-81
2022/04/11 11:00:23;;;;;;;116.63;105.78;;;12.10;76.80;;;;;;5015192;28;20049;-88
2022/04/11 11:03:13;;;;;;;116.93;106.25;;;12.20;75.00;;;;;;4999036;28;20583;-88
2022/04/11 11:05:43;;;;;;;116.20;105.47;;;12.20;76.60;;;;;;5013544;28;20097;-83
2022/04/11 11:08:34;;;;;;;117.10;106.40;;;12.30;76.20;;;;;;4996884;28;20659;-86
2022/04/11 11:11:20;;;;;;;116.72;105.95;;;12.40;74.80;;;;;;5012713;28;20857;-88
2022/04/11 11:13:48;;;;;;;116.72;106.13;;;12.50;73.10;;;;;;4999092;28;20125;-86
2022/04/11 11:16:38;;;;;;;120.78;109.45;;;12.60;73.60;;;;;;4998665;28;20049;-86
2022/04/11 11:19:17;;;;;;;117.90;107.13;;;12.70;73.30;;;;;;4996301;28;20054;-87
2022/04/11 11:22:02;;;;;;;117.30;106.60;;;12.80;73.50;;;;;;4995742;28;20050;-87
2022/04/11 11:24:29;;;;;;;116.72;106.13;;;12.90;74.90;;;;;;4980265;28;20058;-88
2022/04/11 11:26:59;;;;;;;117.57;107.18;;;12.90;74.70;;;;;;5002180;28;20046;-87
2022/04/11 11:29:29;;;;;;;116.43;105.95;;;13.10;74.40;;;;;;4996420;28;20554;-87
2022/04/11 11:31:58;;;;;;;118.13;107.32;;;13.20;73.50;;;;;;4998505;28;20049;-87
2022/04/11 11:34:26;;;;;;;116.10;105.88;;;13.20;72.60;;;;;;4999352;28;20080;-86
2022/04/11 11:36:58;;;;;;;118.63;107.93;;;13.30;74.10;;;;;;4997588;28;20042;-84
2022/04/11 11:39:29;;;;;;;117.55;106.95;;;13.40;74.30;;;;;;4998490;28;20464;-83
2022/04/11 11:42:02;;;;;;;116.65;106.25;;;13.50;74.70;;;;;;4998012;28;20053;-81
2022/04/11 11:44:31;;;;;;;119.38;108.65;;;13.60;74.00;;;;;;4998995;28;20050;-84
2022/04/11 11:47:00;;;;;;;121.28;110.30;;;13.70;73.30;;;;;;4997860;28;20061;-84
2022/04/11 11:49:29;;;;;;;118.65;107.95;;;13.80;73.60;;;;;;5014189;28;20489;-83
2022/04/11 11:51:56;;;;;;;118.88;108.22;;;13.90;71.70;;;;;;5014618;28;20542;-87
2022/04/11 11:54:33;;;;;;;120.60;109.90;;;14.00;69.60;;;;;;5014001;28;20046;-84
2022/04/11 11:57:02;;;;;;;118.80;108.45;;;14.10;70.80;;;;;;5014831;28;20049;-84
2022/04/11 11:59:29;;;;;;;120.82;110.15;;;14.20;69.50;;;;;;4997771;28;20120;-80
2022/04/11 12:04:37;;;;;;;119.78;109.18;;;14.30;68.40;;;;;;5014708;28;20639;-85
2022/04/11 12:07:05;;;;;;;119.00;108.47;;;14.50;68.00;;;;;;5016340;28;20767;-84
2022/04/11 12:09:36;;;;;;;124.28;113.50;;;14.60;67.70;;;;;;5000020;28;20141;-85
2022/04/11 12:12:06;;;;;;;122.28;111.57;;;14.70;69.10;;;;;;4999414;28;20069;-84
2022/04/11 12:15:01;;;;;;;121.10;110.50;;;14.80;68.30;;;;;;5016666;28;20062;-87
2022/04/11 12:17:33;;;;;;;120.85;110.45;;;14.90;66.90;;;;;;5016125;28;20050;-87
2022/04/11 12:20:08;;;;;;;120.53;110.13;;;15.00;66.50;;;;;;5001564;28;20509;-85
2022/04/11 12:22:35;;;;;;;120.32;109.93;;;15.00;65.70;;;;;;5001411;28;20056;-85
2022/04/11 12:25:20;;;;;;;120.50;109.90;;;15.10;65.20;;;;;;5000785;28;20050;-86
2022/04/11 12:27:49;;;;;;;120.25;109.72;;;15.20;65.00;;;;;;4998769;28;20053;-85
2022/04/11 12:30:17;;;;;;;121.03;110.72;;;15.30;63.40;;;;;;5000433;28;20508;-86
2022/04/11 12:32:44;;;;;;;122.47;111.82;;;15.40;65.10;;;;;;5000861;28;20054;-86
2022/04/11 12:35:16;;;;;;;120.93;110.75;;;15.50;63.10;;;;;;4999589;28;20516;-86
2022/04/11 12:37:49;;;;;;;122.18;111.78;;;15.50;62.10;;;;;;5001051;28;20501;-86
2022/04/11 12:40:17;;;;;;;122.05;111.57;;;15.60;60.80;;;;;;5000020;28;20049;-86